Time;durP1;ratioP1;P1;durP2;ratioP2;P2;SDS_P1;SDS_P2;PMS_P1;PMS_P2;Temp;Humidity;BMP_temperature;BMP_pressure;BME280_temperature;BME280_humidity;BME280_pressure;Samples;Min_cycle;Max_cycle;Signal;HPM_P1;HPM_P2
2023/10/09 00:01:31;;;;;;;12.88;3.85;;;18.90;98.60;;;;;;5013766;28;20219;-34
2023/10/09 00:03:59;;;;;;;16.67;4.15;;;18.90;98.60;;;;;;5013410;28;20025;-34
2023/10/09 00:06:36;;;;;;;14.98;3.83;;;18.90;98.60;;;;;;5013315;28;20030;-39
2023/10/09 00:09:16;;;;;;;14.95;4.40;;;18.90;98.60;;;;;;5013431;28;20026;-36
2023/10/09 00:11:44;;;;;;;9.98;3.55;;;18.90;98.60;;;;;;5013773;28;20056;-38
2023/10/09 00:14:15;;;;;;;12.10;3.95;;;18.90;98.60;;;;;;5013375;28;20045;-37
2023/10/09 00:16:48;;;;;;;13.10;4.22;;;18.90;98.50;;;;;;5013122;28;20026;-34
2023/10/09 00:19:17;;;;;;;14.27;4.30;;;18.90;98.60;;;;;;5013184;28;20083;-36
2023/10/09 00:21:47;;;;;;;10.68;4.10;;;18.90;98.60;;;;;;5013208;28;20483;-41
2023/10/09 00:24:13;;;;;;;15.98;4.15;;;18.90;98.50;;;;;;5013034;28;20025;-36
2023/10/09 00:26:45;;;;;;;14.18;4.15;;;18.80;98.50;;;;;;5013042;28;20053;-37
2023/10/09 00:29:28;;;;;;;12.82;4.35;;;18.80;98.50;;;;;;5012887;28;20041;-37
2023/10/09 00:34:41;;;;;;;15.05;4.18;;;18.80;98.50;;;;;;5012966;28;20084;-39
2023/10/09 00:37:16;;;;;;;12.45;4.53;;;18.80;98.50;;;;;;5012948;28;20033;-36
2023/10/09 00:39:43;;;;;;;17.08;4.50;;;18.80;98.50;;;;;;5012870;28;20057;-37
2023/10/09 00:42:12;;;;;;;15.30;4.22;;;18.80;98.50;;;;;;5010943;28;20037;-35
2023/10/09 00:44:42;;;;;;;14.43;4.20;;;18.80;98.50;;;;;;5012662;28;20109;-37
2023/10/09 00:47:20;;;;;;;13.65;4.20;;;18.80;98.50;;;;;;5012703;28;20025;-37
2023/10/09 00:49:58;;;;;;;14.73;4.70;;;18.80;98.50;;;;;;5012646;28;20033;-37
2023/10/09 00:52:31;;;;;;;16.40;4.18;;;18.80;98.50;;;;;;5012639;28;20026;-37
2023/10/09 00:55:08;;;;;;;12.60;3.78;;;18.80;98.50;;;;;;5012524;28;20487;-40
2023/10/09 00:57:39;;;;;;;15.02;4.20;;;18.80;98.50;;;;;;5012531;28;20026;-41
2023/10/09 01:00:13;;;;;;;16.23;4.20;;;18.80;98.40;;;;;;5012474;28;20527;-34
2023/10/09 01:02:42;;;;;;;13.35;4.03;;;18.80;98.50;;;;;;5012536;28;20034;-36
2023/10/09 01:05:18;;;;;;;13.23;4.50;;;18.80;98.50;;;;;;5012185;28;20040;-39
2023/10/09 01:07:47;;;;;;;19.23;4.53;;;18.80;98.40;;;;;;5012336;28;20026;-36
2023/10/09 01:10:16;;;;;;;16.05;3.85;;;18.80;98.50;;;;;;5012346;28;20058;-36
2023/10/09 01:12:44;;;;;;;15.95;4.35;;;18.80;98.40;;;;;;5012221;28;20554;-36
2023/10/09 01:15:35;;;;;;;12.90;4.03;;;18.80;98.40;;;;;;5012101;28;20026;-39
2023/10/09 01:17:58;;;;;;;15.98;4.22;;;18.80;98.40;;;;;;5012026;28;20113;-38
2023/10/09 01:20:30;;;;;;;14.35;4.07;;;18.80;98.40;;;;;;5012058;28;20518;-37
2023/10/09 01:22:55;;;;;;;13.93;3.72;;;18.80;98.40;;;;;;5012180;28;20109;-35
2023/10/09 01:25:21;;;;;;;14.27;4.43;;;18.80;98.40;;;;;;5012089;28;20136;-37
2023/10/09 01:27:47;;;;;;;14.98;3.97;;;18.80;98.40;;;;;;5011891;28;20022;-37
2023/10/09 01:30:13;;;;;;;12.45;3.95;;;18.80;98.40;;;;;;5012005;28;20060;-37
2023/10/09 01:32:40;;;;;;;14.10;4.10;;;18.80;98.40;;;;;;5011916;28;20056;-39
2023/10/09 01:35:15;;;;;;;15.00;4.20;;;18.80;98.40;;;;;;5011843;28;20101;-37
2023/10/09 01:37:49;;;;;;;14.15;4.93;;;18.80;98.40;;;;;;5012207;28;20022;-43
2023/10/09 01:40:36;;;;;;;19.88;4.45;;;18.80;98.40;;;;;;5011876;28;20538;-38
2023/10/09 01:43:03;;;;;;;18.30;4.18;;;18.80;98.30;;;;;;5011906;28;20038;-34
2023/10/09 01:45:29;;;;;;;13.68;4.13;;;18.80;98.40;;;;;;5011725;28;20364;-34
2023/10/09 01:47:55;;;;;;;11.10;4.50;;;18.80;98.40;;;;;;5011614;28;20029;-36
2023/10/09 01:50:30;;;;;;;13.55;4.13;;;18.80;98.40;;;;;;5011634;28;20030;-35
2023/10/09 01:52:56;;;;;;;16.45;4.32;;;18.80;98.40;;;;;;5011727;28;20054;-34
2023/10/09 01:55:41;;;;;;;9.45;3.58;;;18.80;98.40;;;;;;5011094;28;20064;-34
2023/10/09 01:58:23;;;;;;;10.00;3.75;;;18.70;98.30;;;;;;5011519;28;20028;-37
2023/10/09 02:01:02;;;;;;;13.93;4.43;;;18.80;98.30;;;;;;5025225;28;20088;-37
2023/10/09 02:03:29;;;;;;;13.77;3.72;;;18.70;98.30;;;;;;5011618;28;20108;-38
2023/10/09 02:06:02;;;;;;;12.73;4.18;;;18.70;98.30;;;;;;5011558;28;20053;-40
2023/10/09 02:08:29;;;;;;;9.57;3.67;;;18.70;98.40;;;;;;5012147;28;20100;-39
2023/10/09 02:10:56;;;;;;;14.30;4.60;;;18.70;98.30;;;;;;5012068;28;20028;-37
2023/10/09 02:13:29;;;;;;;12.65;3.40;;;18.80;98.30;;;;;;5010139;28;20496;-37
2023/10/09 02:16:16;;;;;;;14.88;4.38;;;18.70;98.30;;;;;;5011582;28;20026;-35
2023/10/09 02:18:56;;;;;;;13.07;4.32;;;18.80;98.30;;;;;;5011506;28;20026;-37
2023/10/09 02:21:39;;;;;;;14.93;4.13;;;18.70;98.30;;;;;;5011411;28;20038;-36
2023/10/09 02:24:26;;;;;;;15.57;3.75;;;18.80;98.30;;;;;;5011546;28;20068;-37
2023/10/09 02:29:17;;;;;;;16.95;4.47;;;18.70;98.30;;;;;;5011252;28;20388;-36
2023/10/09 02:31:46;;;;;;;11.93;3.78;;;18.70;98.30;;;;;;5011521;28;20022;-38
2023/10/09 02:34:12;;;;;;;14.20;4.63;;;18.70;98.30;;;;;;5011999;28;20025;-36
2023/10/09 02:36:41;;;;;;;10.88;3.90;;;18.70;98.30;;;;;;5014873;28;20423;-36
2023/10/09 02:42:19;;;;;;;12.60;4.25;;;18.70;98.30;;;;;;4999198;28;20038;-36
2023/10/09 02:44:49;;;;;;;9.05;3.40;;;18.70;98.30;;;;;;5011091;28;20053;-36
2023/10/09 02:47:29;;;;;;;12.43;3.75;;;18.70;98.30;;;;;;5011189;28;20018;-37
2023/10/09 02:50:00;;;;;;;14.10;4.85;;;18.70;98.30;;;;;;5011357;28;20029;-36
2023/10/09 02:52:32;;;;;;;13.15;3.75;;;18.70;98.30;;;;;;5011156;28;20380;-36
2023/10/09 02:55:07;;;;;;;16.10;3.97;;;18.70;98.30;;;;;;5010858;28;20109;-37
2023/10/09 02:57:41;;;;;;;13.00;4.20;;;18.70;98.30;;;;;;5010947;28;20434;-38
2023/10/09 03:00:18;;;;;;;;;;;18.70;98.30;;;;;;5011553;28;20030;-38
2023/10/09 03:02:48;;;;;;;17.20;4.13;;;18.70;98.30;;;;;;5011067;28;20430;-36
2023/10/09 03:05:14;;;;;;;13.90;4.65;;;18.70;98.30;;;;;;5011507;28;20492;-34
2023/10/09 03:07:40;;;;;;;14.25;4.07;;;18.70;98.30;;;;;;5014769;28;20092;-36
2023/10/09 03:10:09;;;;;;;15.20;4.20;;;18.70;98.60;;;;;;5014554;28;20555;-34
2023/10/09 03:12:35;;;;;;;15.23;4.15;;;18.70;98.30;;;;;;5014486;28;20053;-38
2023/10/09 03:15:02;;;;;;;14.20;4.40;;;18.70;98.30;;;;;;5014790;28;20026;-34
2023/10/09 03:17:28;;;;;;;12.80;3.75;;;18.70;98.30;;;;;;5014738;28;20422;-37
2023/10/09 03:19:54;;;;;;;15.07;4.95;;;18.70;98.30;;;;;;5014247;28;20033;-38
2023/10/09 03:22:20;;;;;;;11.65;3.45;;;18.70;98.30;;;;;;5014582;28;20103;-36
2023/10/09 03:24:46;;;;;;;11.32;4.00;;;18.70;98.30;;;;;;5014191;28;20492;-36
2023/10/09 03:27:13;;;;;;;12.63;4.20;;;18.70;98.30;;;;;;5014172;28;20379;-36
2023/10/09 03:29:39;;;;;;;15.27;3.80;;;18.60;98.20;;;;;;5014170;28;20068;-34
2023/10/09 03:32:06;;;;;;;13.30;4.32;;;18.70;98.30;;;;;;5014119;28;20432;-34
2023/10/09 03:34:32;;;;;;;15.48;3.95;;;18.70;98.30;;;;;;5013884;28;20115;-37
2023/10/09 03:37:04;;;;;;;13.93;3.65;;;18.60;98.30;;;;;;5014027;28;20423;-37
2023/10/09 03:39:34;;;;;;;10.77;3.67;;;18.70;98.30;;;;;;5014095;28;20286;-38
2023/10/09 03:42:04;;;;;;;13.68;3.83;;;18.70;98.30;;;;;;5013927;28;20037;-38
2023/10/09 03:44:33;;;;;;;13.70;4.05;;;18.70;98.30;;;;;;5013880;28;20032;-38
2023/10/09 03:46:59;;;;;;;10.93;3.67;;;18.70;98.30;;;;;;5013646;28;20056;-34
2023/10/09 03:49:25;;;;;;;10.05;3.63;;;18.70;98.30;;;;;;5013814;28;20049;-36
2023/10/09 03:51:52;;;;;;;13.00;3.90;;;18.70;98.30;;;;;;5013920;28;20026;-37
2023/10/09 03:54:22;;;;;;;14.50;4.18;;;18.70;98.30;;;;;;5013704;28;20512;-36
2023/10/09 03:56:49;;;;;;;13.05;3.88;;;18.70;98.30;;;;;;5013586;28;20510;-37
2023/10/09 03:59:21;;;;;;;12.63;3.83;;;18.70;98.30;;;;;;5013585;28;20018;-36
2023/10/09 04:01:48;;;;;;;13.65;4.38;;;18.70;98.30;;;;;;5013635;28;20022;-34
2023/10/09 04:04:14;;;;;;;14.43;3.97;;;18.70;98.30;;;;;;5013507;28;20391;-36
2023/10/09 04:06:40;;;;;;;14.60;3.83;;;18.60;98.30;;;;;;5013414;28;20026;-39
2023/10/09 04:09:35;;;;;;;12.98;3.80;;;18.70;98.30;;;;;;5013778;28;20030;-37
2023/10/09 04:14:58;;;;;;;18.80;4.07;;;18.70;98.30;;;;;;5013481;28;20026;-34
2023/10/09 04:17:33;;;;;;;17.25;4.60;;;18.70;98.30;;;;;;5012281;28;20026;-34
2023/10/09 04:22:50;;;;;;;12.93;3.97;;;18.70;98.40;;;;;;5013486;28;20048;-40
2023/10/09 04:25:41;;;;;;;14.52;3.95;;;18.60;98.30;;;;;;5012982;28;20546;-35
2023/10/09 04:28:22;;;;;;;14.73;4.32;;;18.60;98.30;;;;;;5013033;28;20034;-36
2023/10/09 04:30:55;;;;;;;12.75;3.88;;;18.60;98.30;;;;;;5012973;28;20018;-36
2023/10/09 04:44:19;;;;;;;30.38;5.97;;;18.60;98.20;;;;;;5012894;28;20121;-39
2023/10/09 04:52:51;;;;;;;26.48;5.60;;;17.60;98.90;;;;;;5012727;28;20045;-37
2023/10/09 04:58:09;;;;;;;25.88;5.47;;;17.70;99.00;;;;;;5012433;28;20436;-38
2023/10/09 05:00:46;;;;;;;22.95;5.07;;;17.80;98.90;;;;;;5012570;28;20479;-39
2023/10/09 05:03:25;;;;;;;18.83;5.15;;;17.90;98.80;;;;;;5012631;28;20239;-41
2023/10/09 05:05:58;;;;;;;23.73;5.18;;;17.90;98.80;;;;;;5012415;28;20419;-38
2023/10/09 05:16:28;;;;;;;20.80;5.47;;;18.10;98.70;;;;;;5012165;28;20535;-36
2023/10/09 05:18:56;;;;;;;20.92;5.40;;;18.10;98.60;;;;;;5012077;28;20026;-39
2023/10/09 05:37:26;;;;;;;15.00;5.13;;;18.30;98.50;;;;;;5011665;28;20033;-38
2023/10/09 05:50:34;;;;;;;20.83;5.57;;;18.30;98.50;;;;;;5011763;28;20095;-36
2023/10/09 05:57:08;;;;;;;17.80;4.70;;;18.30;98.50;;;;;;5011656;28;20121;-39
2023/10/09 06:03:16;;;;;;;19.38;4.70;;;18.30;98.50;;;;;;5010596;28;20034;-40
2023/10/09 06:04:17;;;;;;;13.65;4.88;;;18.30;98.90;;;;;;5011460;28;20108;-36
2023/10/09 06:06:55;;;;;;;16.58;4.80;;;18.30;98.50;;;;;;5011353;28;20030;-36
2023/10/09 06:14:24;;;;;;;14.23;4.65;;;18.30;98.50;;;;;;5011691;28;20034;-40
2023/10/09 06:19:26;;;;;;;15.50;4.88;;;18.30;98.50;;;;;;5011632;28;20073;-39
2023/10/09 06:33:04;;;;;;;16.67;4.43;;;18.30;98.50;;;;;;5011509;28;20022;-36
2023/10/09 06:35:35;;;;;;;13.55;4.45;;;18.40;98.60;;;;;;5011637;28;20026;-36
2023/10/09 06:46:37;;;;;;;16.88;4.90;;;18.40;98.60;;;;;;5015449;28;19910;-37
2023/10/09 06:48:55;;;;;;;15.68;4.70;;;18.40;98.60;;;;;;5014913;28;20491;-40
2023/10/09 06:58:57;;;;;;;15.80;4.60;;;18.40;98.60;;;;;;5014752;28;20022;-35
2023/10/09 07:01:42;;;;;;;15.25;3.90;;;18.40;98.60;;;;;;5014784;28;20104;-38
2023/10/09 07:04:19;;;;;;;;;;;18.40;98.60;;;;;;5015174;28;20033;-38
2023/10/09 07:14:32;;;;;;;24.85;4.82;;;18.40;98.90;;;;;;5014677;28;20546;-36
2023/10/09 07:16:59;;;;;;;21.17;5.10;;;18.00;99.30;;;;;;5014323;28;20038;-37
2023/10/09 07:25:40;;;;;;;22.02;5.30;;;17.50;99.90;;;;;;5012018;28;20129;-39
2023/10/09 07:28:03;;;;;;;16.73;5.13;;;17.50;99.90;;;;;;5014052;28;20022;-40
2023/10/09 07:30:37;;;;;;;21.67;4.45;;;17.60;99.90;;;;;;5013276;28;20025;-37
2023/10/09 07:38:19;;;;;;;14.32;4.63;;;17.60;99.90;;;;;;5014081;28;20030;-34
2023/10/09 07:43:27;;;;;;;20.17;4.40;;;17.60;99.90;;;;;;5014073;28;20026;-37
2023/10/09 07:46:29;;;;;;;19.90;4.40;;;17.60;99.90;;;;;;5013777;28;20105;-35
2023/10/09 07:48:48;;;;;;;14.60;4.15;;;17.70;99.90;;;;;;5013692;28;20052;-36
2023/10/09 07:51:14;;;;;;;12.00;3.70;;;17.70;99.90;;;;;;5013927;28;20541;-38
2023/10/09 07:53:44;;;;;;;11.80;3.80;;;17.70;99.90;;;;;;5013837;28;20037;-36
2023/10/09 07:56:19;;;;;;;14.40;4.13;;;17.70;99.90;;;;;;5013553;28;20026;-37
2023/10/09 07:58:47;;;;;;;14.32;4.28;;;17.70;99.90;;;;;;5013694;28;20444;-34
2023/10/09 08:01:34;;;;;;;11.00;3.60;;;17.80;99.90;;;;;;5013528;28;20029;-36
2023/10/09 08:04:13;;;;;;;15.05;4.22;;;17.80;99.90;;;;;;5013762;28;20022;-39
2023/10/09 08:06:44;;;;;;;12.52;4.50;;;17.80;99.90;;;;;;5013476;28;20396;-36
2023/10/09 08:17:20;;;;;;;18.45;4.45;;;17.90;99.80;;;;;;5013797;28;20084;-35
2023/10/09 08:19:55;;;;;;;16.88;3.67;;;17.90;99.80;;;;;;5013378;28;20037;-35
2023/10/09 08:24:57;;;;;;;23.50;4.63;;;18.00;99.90;;;;;;5014173;28;20113;-37
2023/10/09 08:30:48;;;;;;;18.48;4.25;;;18.00;99.80;;;;;;5013661;28;20414;-43
2023/10/09 08:35:47;;;;;;;17.58;4.20;;;18.20;99.70;;;;;;5000688;28;20034;-41
2023/10/09 08:38:14;;;;;;;18.67;3.80;;;18.20;99.60;;;;;;5012855;28;20519;-37
2023/10/09 08:40:40;;;;;;;18.02;4.22;;;18.30;99.60;;;;;;5012808;28;20437;-36
2023/10/09 08:43:16;;;;;;;12.88;3.60;;;18.30;99.50;;;;;;5012841;28;20029;-44
2023/10/09 08:45:53;;;;;;;13.65;3.97;;;18.30;99.40;;;;;;5012696;28;20029;-41
2023/10/09 08:48:21;;;;;;;14.93;3.92;;;18.30;99.40;;;;;;5012753;28;20052;-36
2023/10/09 08:50:49;;;;;;;12.27;3.42;;;18.40;99.40;;;;;;5012760;28;20018;-41
2023/10/09 08:53:19;;;;;;;13.15;3.80;;;18.40;99.40;;;;;;5012642;28;20052;-37
2023/10/09 08:55:46;;;;;;;15.27;4.10;;;18.40;99.30;;;;;;5012538;28;20018;-36
2023/10/09 08:58:20;;;;;;;13.95;4.03;;;18.40;99.30;;;;;;5012595;28;20017;-38
2023/10/09 09:00:49;;;;;;;14.15;3.72;;;18.40;99.30;;;;;;5012582;28;20040;-39
2023/10/09 09:03:16;;;;;;;10.45;3.40;;;18.40;99.30;;;;;;5012015;28;20100;-40
2023/10/09 09:06:02;;;;;;;15.85;3.70;;;18.50;99.30;;;;;;5012187;28;20022;-40
2023/10/09 09:08:29;;;;;;;8.85;3.50;;;18.50;99.30;;;;;;5012245;28;20050;-35
2023/10/09 09:11:12;;;;;;;16.98;3.15;;;18.50;99.30;;;;;;5012389;28;20033;-40
2023/10/09 09:13:51;;;;;;;15.55;3.47;;;18.50;99.20;;;;;;5012444;28;20357;-35
2023/10/09 09:16:21;;;;;;;10.45;2.92;;;18.50;99.20;;;;;;5012067;28;20084;-39
2023/10/09 09:21:40;;;;;;;9.88;3.10;;;18.50;99.20;;;;;;5012227;28;20026;-36
2023/10/09 09:26:59;;;;;;;13.63;2.90;;;18.50;99.20;;;;;;5012268;28;20025;-36
2023/10/09 09:29:54;;;;;;;7.85;2.78;;;18.50;99.10;;;;;;5012198;28;20022;-39
2023/10/09 09:32:38;;;;;;;13.90;3.65;;;18.60;99.20;;;;;;5012061;28;20049;-42
2023/10/09 09:35:05;;;;;;;8.80;2.80;;;18.50;99.10;;;;;;5011883;28;20556;-38
2023/10/09 09:42:56;;;;;;;9.07;2.97;;;18.60;99.10;;;;;;5011896;28;20040;-42
2023/10/09 09:45:24;;;;;;;13.07;3.03;;;18.60;99.10;;;;;;5011501;28;20030;-43
2023/10/09 09:47:52;;;;;;;14.45;3.50;;;18.60;99.10;;;;;;5011727;28;20018;-38
2023/10/09 09:50:29;;;;;;;13.98;3.08;;;18.60;99.10;;;;;;5026845;28;20045;-38
2023/10/09 09:52:55;;;;;;;9.95;2.95;;;18.60;99.10;;;;;;5012199;28;20022;-37
2023/10/09 09:55:30;;;;;;;10.00;3.38;;;18.60;99.00;;;;;;5012896;28;20034;-38
2023/10/09 09:57:57;;;;;;;6.65;2.60;;;18.60;99.00;;;;;;5014787;28;20088;-44
2023/10/09 10:03:18;;;;;;;8.30;2.80;;;18.60;99.00;;;;;;5011705;28;20384;-41
2023/10/09 10:05:48;;;;;;;10.32;3.05;;;18.70;99.00;;;;;;5011437;28;20037;-39
2023/10/09 10:08:19;;;;;;;12.10;2.92;;;18.70;99.00;;;;;;5011492;28;20033;-37
2023/10/09 10:10:55;;;;;;;9.38;2.72;;;18.70;99.00;;;;;;5011513;28;20104;-37
2023/10/09 10:13:43;;;;;;;10.77;3.30;;;18.70;99.00;;;;;;5011597;28;20101;-37
2023/10/09 10:18:59;;;;;;;6.40;2.38;;;18.80;98.90;;;;;;5015481;28;20018;-39
2023/10/09 10:24:10;;;;;;;8.40;2.50;;;18.80;98.90;;;;;;5015713;28;20026;-38
2023/10/09 10:26:36;;;;;;;7.65;3.10;;;18.80;98.90;;;;;;5015290;28;20030;-39
2023/10/09 10:29:33;;;;;;;7.13;2.47;;;18.80;99.20;;;;;;5015267;28;20041;-37
2023/10/09 10:32:11;;;;;;;12.80;3.45;;;18.80;98.90;;;;;;5015289;28;20025;-37
2023/10/09 10:35:06;;;;;;;10.30;2.50;;;18.80;98.90;;;;;;5015405;28;20032;-37
2023/10/09 10:37:50;;;;;;;8.65;2.47;;;18.90;98.90;;;;;;5015565;28;20378;-38
2023/10/09 10:40:38;;;;;;;7.40;2.42;;;18.80;98.80;;;;;;5015260;28;20108;-39
2023/10/09 10:43:13;;;;;;;8.73;2.60;;;18.90;98.90;;;;;;5015160;28;20487;-38
2023/10/09 10:45:45;;;;;;;7.32;2.80;;;18.90;98.90;;;;;;5011503;28;20038;-39
2023/10/09 10:48:37;;;;;;;23.98;4.93;;;18.90;98.80;;;;;;5004525;28;20319;-35
2023/10/09 10:51:03;;;;;;;26.63;4.75;;;18.90;99.00;;;;;;5012994;28;20375;-40
2023/10/09 10:53:47;;;;;;;21.58;4.90;;;19.00;99.20;;;;;;5014990;28;20027;-35
2023/10/09 10:58:53;;;;;;;22.77;4.18;;;19.00;99.20;;;;;;5015050;28;20538;-36
2023/10/09 11:01:22;;;;;;;21.98;4.57;;;19.00;99.30;;;;;;5014803;28;20105;-35
2023/10/09 11:03:55;;;;;;;19.70;4.88;;;19.00;99.60;;;;;;5014625;28;20083;-35
2023/10/09 11:06:37;;;;;;;23.80;4.63;;;19.00;99.30;;;;;;5014539;28;20026;-36
2023/10/09 11:09:20;;;;;;;25.25;4.88;;;19.00;99.30;;;;;;5014686;28;20384;-38
2023/10/09 11:11:47;;;;;;;20.20;4.13;;;19.00;99.30;;;;;;5014611;28;20030;-36
2023/10/09 11:14:23;;;;;;;21.75;3.97;;;19.00;99.20;;;;;;5014733;28;20105;-36
2023/10/09 11:16:57;;;;;;;20.90;4.10;;;19.00;99.20;;;;;;5014406;28;20080;-36
2023/10/09 11:19:31;;;;;;;;;;;19.00;99.20;;;;;;5014816;28;20444;-36
2023/10/09 11:24:34;;;;;;;14.30;4.00;;;19.10;99.20;;;;;;5014361;28;20381;-36
2023/10/09 11:27:07;;;;;;;17.98;3.90;;;19.00;99.10;;;;;;5013768;28;20014;-34
2023/10/09 11:32:32;;;;;;;18.30;3.72;;;19.10;99.20;;;;;;5014514;28;20033;-39
2023/10/09 11:35:28;;;;;;;16.60;3.50;;;19.00;99.10;;;;;;5014000;28;20046;-39
2023/10/09 11:37:57;;;;;;;19.20;4.05;;;19.00;99.10;;;;;;5013932;28;20029;-39
2023/10/09 11:41:03;;;;;;;17.45;3.97;;;19.00;99.10;;;;;;5014151;28;20380;-38
2023/10/09 11:46:36;;;;;;;19.80;4.78;;;19.00;99.00;;;;;;5014016;28;20040;-46
2023/10/09 11:54:39;;;;;;;16.88;3.65;;;19.00;99.00;;;;;;5013725;28;20076;-37
2023/10/09 11:57:05;;;;;;;6.80;2.80;;;19.00;99.00;;;;;;5013892;28;20026;-37
2023/10/09 11:59:37;;;;;;;11.45;3.20;;;19.00;99.00;;;;;;5013638;28;20447;-36
2023/10/09 12:02:11;;;;;;;11.85;3.35;;;19.00;99.30;;;;;;5013739;28;20644;-36
2023/10/09 12:04:37;;;;;;;;;;;19.00;99.00;;;;;;5013850;28;20044;-38
2023/10/09 12:07:10;;;;;;;9.40;3.25;;;19.00;99.00;;;;;;5013392;28;20004;-38
2023/10/09 12:09:37;;;;;;;7.80;3.13;;;19.00;99.00;;;;;;5013482;28;20022;-38
2023/10/09 12:12:05;;;;;;;10.35;3.28;;;19.00;99.00;;;;;;5013517;28;20504;-38
2023/10/09 12:14:37;;;;;;;10.18;3.33;;;19.00;99.00;;;;;;5013336;28;20049;-37
2023/10/09 12:17:05;;;;;;;10.95;3.35;;;19.00;99.00;;;;;;5013432;28;20026;-36
2023/10/09 12:19:40;;;;;;;9.25;2.97;;;19.00;99.00;;;;;;5013017;28;20061;-36
2023/10/09 12:22:10;;;;;;;12.70;3.50;;;19.00;99.30;;;;;;5013363;28;20041;-36
2023/10/09 12:24:37;;;;;;;10.63;3.13;;;19.00;99.00;;;;;;5013113;28;20484;-37
2023/10/09 12:27:09;;;;;;;13.95;3.45;;;19.00;99.00;;;;;;5013150;28;20022;-36
2023/10/09 12:29:35;;;;;;;9.48;3.10;;;19.00;99.00;;;;;;5013109;28;20022;-37
2023/10/09 12:32:02;;;;;;;10.15;2.97;;;19.00;98.90;;;;;;5013012;28;20413;-35
2023/10/09 12:34:28;;;;;;;8.95;3.20;;;19.00;99.00;;;;;;5013004;28;20030;-37
2023/10/09 12:36:54;;;;;;;8.25;2.95;;;19.00;99.00;;;;;;5012864;28;20403;-39
2023/10/09 12:39:21;;;;;;;9.45;3.53;;;19.00;98.90;;;;;;5012066;28;20026;-37
2023/10/09 12:41:48;;;;;;;7.00;2.80;;;19.00;98.90;;;;;;5013036;28;20570;-36
2023/10/09 12:44:18;;;;;;;12.02;3.40;;;19.00;98.90;;;;;;5012756;28;20034;-37
2023/10/09 12:46:53;;;;;;;9.35;3.30;;;19.00;98.90;;;;;;5012609;28;20030;-37
2023/10/09 12:49:25;;;;;;;8.52;2.85;;;19.00;98.90;;;;;;5012803;28;20033;-42
2023/10/09 12:51:54;;;;;;;9.35;3.28;;;19.00;98.80;;;;;;5012820;28;20026;-39
2023/10/09 12:54:28;;;;;;;8.30;2.85;;;19.00;98.80;;;;;;5013102;28;20058;-35
2023/10/09 12:56:55;;;;;;;9.00;2.60;;;19.10;98.80;;;;;;5012484;28;20476;-40
2023/10/09 12:59:21;;;;;;;12.05;3.30;;;19.10;98.80;;;;;;5012576;28;20053;-36
2023/10/09 13:01:52;;;;;;;6.93;3.03;;;19.10;98.80;;;;;;5012628;28;20492;-36
2023/10/09 13:04:22;;;;;;;10.15;3.33;;;19.10;98.70;;;;;;5012505;28;20109;-38
2023/10/09 13:06:49;;;;;;;7.32;2.92;;;19.20;98.70;;;;;;5012293;28;20387;-40
2023/10/09 13:09:34;;;;;;;8.27;2.92;;;19.10;98.60;;;;;;5012346;28;20485;-41
2023/10/09 13:12:00;;;;;;;;;;;19.20;98.60;;;;;;5012846;28;20018;-36
2023/10/09 13:14:26;;;;;;;9.82;2.92;;;19.20;98.60;;;;;;5012321;28;20375;-41
2023/10/09 13:16:52;;;;;;;5.97;2.47;;;19.20;98.60;;;;;;5012209;28;20025;-40
2023/10/09 13:19:18;;;;;;;9.15;3.03;;;19.30;98.90;;;;;;5012006;28;20034;-40
2023/10/09 13:21:44;;;;;;;6.05;2.50;;;19.30;98.60;;;;;;5012261;28;20032;-40
2023/10/09 13:24:15;;;;;;;10.55;3.63;;;19.20;98.50;;;;;;5012017;28;20034;-40
2023/10/09 13:26:45;;;;;;;9.82;2.78;;;19.30;98.50;;;;;;5012224;28;20153;-38
2023/10/09 13:29:11;;;;;;;7.30;3.22;;;19.30;98.50;;;;;;5012114;28;20024;-41
2023/10/09 13:31:39;;;;;;;11.02;2.72;;;19.30;98.50;;;;;;5012197;28;20455;-39
2023/10/09 13:34:14;;;;;;;10.30;3.40;;;19.30;98.50;;;;;;5012346;28;20279;-35
2023/10/09 13:36:52;;;;;;;8.23;2.85;;;19.30;98.50;;;;;;5012537;28;20025;-38
2023/10/09 13:39:24;;;;;;;7.07;2.83;;;19.30;98.50;;;;;;5012327;28;20024;-36
2023/10/09 13:42:05;;;;;;;6.97;3.08;;;19.30;98.50;;;;;;5014674;28;20049;-37
2023/10/09 13:44:32;;;;;;;6.68;3.03;;;19.30;98.50;;;;;;5012122;28;20033;-34
2023/10/09 13:47:05;;;;;;;7.65;2.83;;;19.30;98.40;;;;;;5011624;28;20420;-38
2023/10/09 13:49:31;;;;;;;8.45;3.22;;;19.30;98.40;;;;;;5011745;28;20026;-35
2023/10/09 13:52:02;;;;;;;8.20;2.72;;;19.30;98.40;;;;;;5011771;28;20021;-39
2023/10/09 13:54:39;;;;;;;5.65;2.88;;;19.30;98.40;;;;;;5011763;28;20032;-38
2023/10/09 13:57:06;;;;;;;8.65;2.53;;;19.40;98.40;;;;;;5011639;28;20093;-37
2023/10/09 13:59:36;;;;;;;5.93;2.53;;;19.40;98.40;;;;;;5011554;28;20018;-39
2023/10/09 14:02:08;;;;;;;7.38;3.15;;;19.40;98.40;;;;;;5011734;28;20026;-36
2023/10/09 14:04:34;;;;;;;6.68;2.80;;;19.30;98.30;;;;;;5011573;28;20491;-37
2023/10/09 14:07:01;;;;;;;6.30;2.70;;;19.30;98.30;;;;;;5011563;28;20104;-37
2023/10/09 14:09:31;;;;;;;5.82;2.88;;;19.40;98.30;;;;;;5011628;28;20038;-35
2023/10/09 14:12:07;;;;;;;6.72;3.05;;;19.40;98.30;;;;;;5011392;28;20022;-37
2023/10/09 14:14:49;;;;;;;9.18;3.42;;;19.40;98.30;;;;;;5011883;28;20101;-36
2023/10/09 14:17:23;;;;;;;6.00;2.63;;;19.40;98.30;;;;;;5011499;28;20492;-38
2023/10/09 14:19:51;;;;;;;5.97;3.00;;;19.40;98.30;;;;;;5011513;28;20045;-37
2023/10/09 14:22:38;;;;;;;7.30;2.85;;;19.40;98.30;;;;;;5011421;28;20033;-37
2023/10/09 14:25:12;;;;;;;4.82;2.75;;;19.40;98.20;;;;;;5011565;28;20033;-34
2023/10/09 14:27:38;;;;;;;6.60;2.80;;;19.40;98.20;;;;;;5011335;28;20046;-37
2023/10/09 14:30:12;;;;;;;6.20;2.83;;;19.40;98.20;;;;;;5011469;28;20061;-38
2023/10/09 14:32:44;;;;;;;7.90;3.63;;;19.40;98.20;;;;;;5011384;28;20085;-35
2023/10/09 14:35:13;;;;;;;6.45;2.72;;;19.40;98.20;;;;;;5011326;28;20033;-35
2023/10/09 14:37:42;;;;;;;7.03;3.30;;;19.40;98.20;;;;;;5011274;28;20154;-36
2023/10/09 14:40:13;;;;;;;7.82;3.50;;;19.40;98.10;;;;;;5011275;28;20033;-35
2023/10/09 14:42:43;;;;;;;6.28;2.90;;;19.40;98.10;;;;;;5011349;28;20554;-39
2023/10/09 14:45:15;;;;;;;7.38;3.45;;;19.40;98.10;;;;;;5011020;28;20036;-37
2023/10/09 14:47:41;;;;;;;5.30;2.90;;;19.40;98.10;;;;;;5011282;28;20427;-38
2023/10/09 14:50:13;;;;;;;7.55;3.08;;;19.40;98.10;;;;;;5011256;28;20048;-37
2023/10/09 14:52:39;;;;;;;5.95;2.88;;;19.40;98.10;;;;;;5011314;28;20024;-36
2023/10/09 14:55:07;;;;;;;6.82;3.20;;;19.40;98.10;;;;;;5011146;28;20026;-35
2023/10/09 14:57:33;;;;;;;7.13;3.22;;;19.40;98.10;;;;;;5011058;28;20407;-38
2023/10/09 14:59:59;;;;;;;6.72;3.63;;;19.40;98.10;;;;;;5011028;28;20021;-38
2023/10/09 15:02:25;;;;;;;6.00;2.55;;;19.40;98.10;;;;;;5013707;28;20029;-37
2023/10/09 15:04:52;;;;;;;5.68;3.15;;;19.40;98.00;;;;;;5013560;28;20479;-38
2023/10/09 15:07:20;;;;;;;5.35;2.88;;;19.40;98.00;;;;;;5015041;28;20061;-36
2023/10/09 15:09:46;;;;;;;7.28;3.80;;;19.40;98.10;;;;;;5014717;28;20018;-36
2023/10/09 15:12:12;;;;;;;5.20;2.95;;;19.40;98.10;;;;;;5014737;28;20048;-34
2023/10/09 15:14:39;;;;;;;6.63;3.38;;;19.40;98.10;;;;;;5014665;28;20036;-36
2023/10/09 15:17:06;;;;;;;6.70;3.38;;;19.40;98.00;;;;;;5014512;28;20572;-37
2023/10/09 15:19:32;;;;;;;8.45;3.60;;;19.40;98.00;;;;;;5014394;28;20034;-37
2023/10/09 15:21:59;;;;;;;7.93;3.20;;;19.40;98.30;;;;;;5014435;28;20104;-38
2023/10/09 15:24:27;;;;;;;9.00;3.47;;;19.40;97.90;;;;;;5014373;28;20041;-38
2023/10/09 15:26:56;;;;;;;4.85;3.00;;;19.40;97.90;;;;;;5014188;28;20026;-39
2023/10/09 15:29:27;;;;;;;7.47;3.38;;;19.40;97.90;;;;;;5014363;28;20492;-39
2023/10/09 15:32:14;;;;;;;5.63;3.20;;;19.40;97.90;;;;;;5014368;28;20096;-37
2023/10/09 15:34:41;;;;;;;7.00;3.25;;;19.40;98.00;;;;;;5014146;28;20384;-42
2023/10/09 15:37:10;;;;;;;6.30;3.33;;;19.40;98.00;;;;;;5014134;28;20395;-36
2023/10/09 15:39:36;;;;;;;6.65;3.38;;;19.40;98.00;;;;;;5014017;28;20460;-36
2023/10/09 15:42:06;;;;;;;5.38;2.75;;;19.40;98.00;;;;;;5014124;28;20030;-38
2023/10/09 15:44:41;;;;;;;7.03;3.20;;;19.40;98.00;;;;;;5013977;28;20025;-37
2023/10/09 15:47:08;;;;;;;10.23;3.25;;;19.40;98.10;;;;;;5013988;28;20025;-38
2023/10/09 15:49:34;;;;;;;7.43;3.00;;;19.30;98.00;;;;;;5013953;28;20025;-35
2023/10/09 15:52:03;;;;;;;7.53;3.35;;;19.40;98.10;;;;;;5013833;28;20033;-35
2023/10/09 15:54:28;;;;;;;5.13;2.90;;;19.30;98.00;;;;;;5013825;28;20492;-38
2023/10/09 15:56:55;;;;;;;5.72;3.05;;;19.40;98.10;;;;;;5013686;28;20116;-36
2023/10/09 15:59:24;;;;;;;8.40;3.22;;;19.30;98.10;;;;;;5013872;28;20104;-38
2023/10/09 16:01:51;;;;;;;7.43;3.25;;;19.30;98.10;;;;;;5013743;28;20029;-38
2023/10/09 16:04:17;;;;;;;7.55;3.63;;;19.30;98.20;;;;;;5014071;28;20029;-38
2023/10/09 16:06:42;;;;;;;4.32;2.63;;;19.30;98.10;;;;;;5013382;28;20022;-39